sensor_id;sensor_type;location;lat;lon;timestamp;temperature;humidity
16728;DHT22;8482;54.396;18.590;2022-11-15T00:00:54;10.30;99.90
16728;DHT22;8482;54.396;18.590;2022-11-15T00:03:25;10.30;99.90
16728;DHT22;8482;54.396;18.590;2022-11-15T00:05:52;10.30;99.90
16728;DHT22;8482;54.396;18.590;2022-11-15T00:08:18;10.30;99.90
16728;DHT22;8482;54.396;18.590;2022-11-15T00:10:55;10.30;99.90
16728;DHT22;8482;54.396;18.590;2022-11-15T00:13:22;10.30;99.90
16728;DHT22;8482;54.396;18.590;2022-11-15T00:15:48;10.30;99.90
16728;DHT22;8482;54.396;18.590;2022-11-15T00:18:15;10.30;99.90
16728;DHT22;8482;54.396;18.590;2022-11-15T00:20:41;10.30;99.90
16728;DHT22;8482;54.396;18.590;2022-11-15T00:23:08;10.30;99.90
16728;DHT22;8482;54.396;18.590;2022-11-15T00:25:34;10.30;99.90
16728;DHT22;8482;54.396;18.590;2022-11-15T00:28:01;10.30;99.90
16728;DHT22;8482;54.396;18.590;2022-11-15T00:30:27;10.30;99.90
16728;DHT22;8482;54.396;18.590;2022-11-15T00:32:53;10.30;99.90
16728;DHT22;8482;54.396;18.590;2022-11-15T00:35:20;10.30;99.90
16728;DHT22;8482;54.396;18.590;2022-11-15T00:37:46;10.30;99.90
16728;DHT22;8482;54.396;18.590;2022-11-15T00:40:13;10.30;99.90
16728;DHT22;8482;54.396;18.590;2022-11-15T00:42:40;10.30;99.90
16728;DHT22;8482;54.396;18.590;2022-11-15T00:45:07;10.30;99.90
16728;DHT22;8482;54.396;18.590;2022-11-15T00:47:33;10.30;99.90
16728;DHT22;8482;54.396;18.590;2022-11-15T00:49:59;10.30;99.90
16728;DHT22;8482;54.396;18.590;2022-11-15T00:52:24;10.30;99.90
16728;DHT22;8482;54.396;18.590;2022-11-15T00:54:50;10.30;99.90
16728;DHT22;8482;54.396;18.590;2022-11-15T00:57:16;10.30;99.90
16728;DHT22;8482;54.396;18.590;2022-11-15T00:59:44;10.30;99.90
16728;DHT22;8482;54.396;18.590;2022-11-15T01:02:10;10.30;99.90
16728;DHT22;8482;54.396;18.590;2022-11-15T01:04:36;10.30;99.90
16728;DHT22;8482;54.396;18.590;2022-11-15T01:07:01;10.30;99.90
16728;DHT22;8482;54.396;18.590;2022-11-15T01:09:27;10.30;99.90
16728;DHT22;8482;54.396;18.590;2022-11-15T01:11:53;10.30;99.90
16728;DHT22;8482;54.396;18.590;2022-11-15T01:14:19;10.30;99.90
16728;DHT22;8482;54.396;18.590;2022-11-15T01:16:45;10.30;99.90
16728;DHT22;8482;54.396;18.590;2022-11-15T01:19:10;10.30;99.90
16728;DHT22;8482;54.396;18.590;2022-11-15T01:21:36;10.30;99.90
16728;DHT22;8482;54.396;18.590;2022-11-15T01:24:02;10.30;99.90
16728;DHT22;8482;54.396;18.590;2022-11-15T01:26:28;10.20;99.90
16728;DHT22;8482;54.396;18.590;2022-11-15T01:28:54;10.20;99.90
16728;DHT22;8482;54.396;18.590;2022-11-15T01:31:21;10.20;99.90
16728;DHT22;8482;54.396;18.590;2022-11-15T01:33:48;10.20;99.90
16728;DHT22;8482;54.396;18.590;2022-11-15T01:36:19;10.20;99.90
16728;DHT22;8482;54.396;18.590;2022-11-15T01:38:57;10.20;99.90
16728;DHT22;8482;54.396;18.590;2022-11-15T01:41:29;10.20;99.90
16728;DHT22;8482;54.396;18.590;2022-11-15T01:47:02;10.10;99.90
16728;DHT22;8482;54.396;18.590;2022-11-15T01:49:33;10.10;99.90
16728;DHT22;8482;54.396;18.590;2022-11-15T01:52:06;10.10;99.90
16728;DHT22;8482;54.396;18.590;2022-11-15T01:54:36;10.10;99.90
16728;DHT22;8482;54.396;18.590;2022-11-15T01:57:09;10.10;99.90
16728;DHT22;8482;54.396;18.590;2022-11-15T01:59:38;10.10;99.90
16728;DHT22;8482;54.396;18.590;2022-11-15T02:02:07;10.10;99.90
16728;DHT22;8482;54.396;18.590;2022-11-15T02:04:40;10.10;99.90
16728;DHT22;8482;54.396;18.590;2022-11-15T02:07:12;10.10;99.90
16728;DHT22;8482;54.396;18.590;2022-11-15T02:09:41;10.00;99.90
16728;DHT22;8482;54.396;18.590;2022-11-15T02:12:09;10.00;99.90
16728;DHT22;8482;54.396;18.590;2022-11-15T02:14:40;10.00;99.90
16728;DHT22;8482;54.396;18.590;2022-11-15T02:20:08;10.00;99.90
16728;DHT22;8482;54.396;18.590;2022-11-15T02:26:17;10.00;99.90
16728;DHT22;8482;54.396;18.590;2022-11-15T02:29:05;10.00;99.90
16728;DHT22;8482;54.396;18.590;2022-11-15T02:34:47;10.00;99.90
16728;DHT22;8482;54.396;18.590;2022-11-15T02:37:57;10.00;99.90
16728;DHT22;8482;54.396;18.590;2022-11-15T02:44:20;10.00;99.90
16728;DHT22;8482;54.396;18.590;2022-11-15T02:46:54;10.00;99.90
16728;DHT22;8482;54.396;18.590;2022-11-15T02:49:41;10.00;99.90
16728;DHT22;8482;54.396;18.590;2022-11-15T02:52:18;10.00;99.90
16728;DHT22;8482;54.396;18.590;2022-11-15T02:54:56;10.00;99.90
16728;DHT22;8482;54.396;18.590;2022-11-15T03:00:09;10.00;99.90
16728;DHT22;8482;54.396;18.590;2022-11-15T03:02:49;10.00;99.90
16728;DHT22;8482;54.396;18.590;2022-11-15T03:11:32;10.00;99.90
16728;DHT22;8482;54.396;18.590;2022-11-15T03:14:27;10.00;99.90
16728;DHT22;8482;54.396;18.590;2022-11-15T03:19:56;10.00;99.90
16728;DHT22;8482;54.396;18.590;2022-11-15T03:22:27;9.90;99.90
16728;DHT22;8482;54.396;18.590;2022-11-15T03:25:01;9.90;99.90
16728;DHT22;8482;54.396;18.590;2022-11-15T03:27:35;9.90;99.90
16728;DHT22;8482;54.396;18.590;2022-11-15T03:30:08;9.90;99.90
16728;DHT22;8482;54.396;18.590;2022-11-15T03:32:40;9.90;99.90
16728;DHT22;8482;54.396;18.590;2022-11-15T03:35:20;9.90;99.90
16728;DHT22;8482;54.396;18.590;2022-11-15T03:38:16;9.80;99.90
16728;DHT22;8482;54.396;18.590;2022-11-15T03:41:01;9.80;99.90
16728;DHT22;8482;54.396;18.590;2022-11-15T03:43:47;9.80;99.90
16728;DHT22;8482;54.396;18.590;2022-11-15T03:46:28;9.80;99.90
16728;DHT22;8482;54.396;18.590;2022-11-15T03:49:24;9.80;99.90
16728;DHT22;8482;54.396;18.590;2022-11-15T03:51:57;9.90;99.90
16728;DHT22;8482;54.396;18.590;2022-11-15T03:54:23;9.80;99.90
16728;DHT22;8482;54.396;18.590;2022-11-15T03:56:49;9.80;99.90
16728;DHT22;8482;54.396;18.590;2022-11-15T03:59:15;9.80;99.90
16728;DHT22;8482;54.396;18.590;2022-11-15T04:01:41;9.80;99.90
16728;DHT22;8482;54.396;18.590;2022-11-15T04:04:06;9.80;99.90
16728;DHT22;8482;54.396;18.590;2022-11-15T04:06:32;9.80;99.90
16728;DHT22;8482;54.396;18.590;2022-11-15T04:08:58;9.80;99.90
16728;DHT22;8482;54.396;18.590;2022-11-15T04:11:24;9.80;99.90
16728;DHT22;8482;54.396;18.590;2022-11-15T04:13:49;9.80;99.90
16728;DHT22;8482;54.396;18.590;2022-11-15T04:16:15;9.80;99.90
16728;DHT22;8482;54.396;18.590;2022-11-15T04:18:41;9.80;99.90
16728;DHT22;8482;54.396;18.590;2022-11-15T04:21:07;9.80;99.90
16728;DHT22;8482;54.396;18.590;2022-11-15T04:23:52;9.80;99.90
16728;DHT22;8482;54.396;18.590;2022-11-15T04:26:36;9.80;99.90
16728;DHT22;8482;54.396;18.590;2022-11-15T04:29:02;9.80;99.90
16728;DHT22;8482;54.396;18.590;2022-11-15T04:31:46;9.70;99.90
16728;DHT22;8482;54.396;18.590;2022-11-15T04:34:12;9.70;99.90
16728;DHT22;8482;54.396;18.590;2022-11-15T04:36:37;9.70;99.90
16728;DHT22;8482;54.396;18.590;2022-11-15T04:39:22;9.70;99.90
16728;DHT22;8482;54.396;18.590;2022-11-15T04:41:47;9.70;99.90
16728;DHT22;8482;54.396;18.590;2022-11-15T04:44:13;9.70;99.90
16728;DHT22;8482;54.396;18.590;2022-11-15T04:46:39;9.70;99.90
16728;DHT22;8482;54.396;18.590;2022-11-15T04:49:04;9.70;99.90
16728;DHT22;8482;54.396;18.590;2022-11-15T04:51:30;9.70;99.90
16728;DHT22;8482;54.396;18.590;2022-11-15T04:53:56;9.70;99.90
16728;DHT22;8482;54.396;18.590;2022-11-15T04:56:22;9.60;99.90
16728;DHT22;8482;54.396;18.590;2022-11-15T04:58:50;9.60;99.90
16728;DHT22;8482;54.396;18.590;2022-11-15T05:01:16;9.60;99.90
16728;DHT22;8482;54.396;18.590;2022-11-15T05:03:43;9.60;99.90
16728;DHT22;8482;54.396;18.590;2022-11-15T05:06:29;9.60;99.90
16728;DHT22;8482;54.396;18.590;2022-11-15T05:08:55;9.60;99.90
16728;DHT22;8482;54.396;18.590;2022-11-15T05:11:21;9.70;99.90
16728;DHT22;8482;54.396;18.590;2022-11-15T05:13:47;9.70;99.90
16728;DHT22;8482;54.396;18.590;2022-11-15T05:16:14;9.60;99.90
16728;DHT22;8482;54.396;18.590;2022-11-15T05:18:39;9.70;99.90
16728;DHT22;8482;54.396;18.590;2022-11-15T05:21:08;9.70;99.90
16728;DHT22;8482;54.396;18.590;2022-11-15T05:23:36;9.70;99.90
16728;DHT22;8482;54.396;18.590;2022-11-15T05:26:04;9.70;99.90
16728;DHT22;8482;54.396;18.590;2022-11-15T05:28:32;9.70;99.90
16728;DHT22;8482;54.396;18.590;2022-11-15T05:33:34;9.70;99.90
16728;DHT22;8482;54.396;18.590;2022-11-15T05:36:37;9.70;99.90
16728;DHT22;8482;54.396;18.590;2022-11-15T05:39:06;9.70;99.90
16728;DHT22;8482;54.396;18.590;2022-11-15T05:41:45;9.70;99.90
16728;DHT22;8482;54.396;18.590;2022-11-15T05:44:18;9.70;99.90
16728;DHT22;8482;54.396;18.590;2022-11-15T05:46:47;9.60;99.90
16728;DHT22;8482;54.396;18.590;2022-11-15T05:49:16;9.60;99.90
16728;DHT22;8482;54.396;18.590;2022-11-15T05:51:47;9.60;99.90
16728;DHT22;8482;54.396;18.590;2022-11-15T05:54:15;9.60;99.90
16728;DHT22;8482;54.396;18.590;2022-11-15T05:56:43;9.60;99.90
16728;DHT22;8482;54.396;18.590;2022-11-15T05:59:09;9.60;99.90
16728;DHT22;8482;54.396;18.590;2022-11-15T06:01:37;9.60;99.90
16728;DHT22;8482;54.396;18.590;2022-11-15T06:04:04;9.60;99.90
16728;DHT22;8482;54.396;18.590;2022-11-15T06:06:30;9.60;99.90
16728;DHT22;8482;54.396;18.590;2022-11-15T06:08:55;9.60;99.90
16728;DHT22;8482;54.396;18.590;2022-11-15T06:11:21;9.60;99.90
16728;DHT22;8482;54.396;18.590;2022-11-15T06:13:47;9.60;99.90
16728;DHT22;8482;54.396;18.590;2022-11-15T06:16:13;9.60;99.90
16728;DHT22;8482;54.396;18.590;2022-11-15T06:18:39;9.60;99.90
16728;DHT22;8482;54.396;18.590;2022-11-15T06:21:05;9.60;99.90
16728;DHT22;8482;54.396;18.590;2022-11-15T06:23:32;9.60;99.90
16728;DHT22;8482;54.396;18.590;2022-11-15T06:26:00;9.60;99.90
16728;DHT22;8482;54.396;18.590;2022-11-15T06:28:33;9.60;99.90
16728;DHT22;8482;54.396;18.590;2022-11-15T06:31:10;9.60;99.90
16728;DHT22;8482;54.396;18.590;2022-11-15T06:33:37;9.60;99.90
16728;DHT22;8482;54.396;18.590;2022-11-15T06:36:09;9.60;99.90
16728;DHT22;8482;54.396;18.590;2022-11-15T06:38:39;9.60;99.90
16728;DHT22;8482;54.396;18.590;2022-11-15T06:41:07;9.60;99.90
16728;DHT22;8482;54.396;18.590;2022-11-15T06:43:34;9.60;99.90
16728;DHT22;8482;54.396;18.590;2022-11-15T06:46:02;9.60;99.90
16728;DHT22;8482;54.396;18.590;2022-11-15T06:48:29;9.60;99.90
16728;DHT22;8482;54.396;18.590;2022-11-15T06:50:58;9.60;99.90
16728;DHT22;8482;54.396;18.590;2022-11-15T06:53:25;9.60;99.90
16728;DHT22;8482;54.396;18.590;2022-11-15T06:55:52;9.60;99.90
16728;DHT22;8482;54.396;18.590;2022-11-15T06:58:18;9.60;99.90
16728;DHT22;8482;54.396;18.590;2022-11-15T07:00:46;9.60;99.90
16728;DHT22;8482;54.396;18.590;2022-11-15T07:03:12;9.60;99.90
16728;DHT22;8482;54.396;18.590;2022-11-15T07:05:38;9.60;99.90
16728;DHT22;8482;54.396;18.590;2022-11-15T07:08:03;9.60;99.90
16728;DHT22;8482;54.396;18.590;2022-11-15T07:10:29;9.60;99.90
16728;DHT22;8482;54.396;18.590;2022-11-15T07:12:56;9.60;99.90
16728;DHT22;8482;54.396;18.590;2022-11-15T07:15:25;9.60;99.90
16728;DHT22;8482;54.396;18.590;2022-11-15T07:17:51;9.60;99.90
16728;DHT22;8482;54.396;18.590;2022-11-15T07:20:18;9.60;99.90
16728;DHT22;8482;54.396;18.590;2022-11-15T07:22:44;9.60;99.90
16728;DHT22;8482;54.396;18.590;2022-11-15T07:25:12;9.60;99.90
16728;DHT22;8482;54.396;18.590;2022-11-15T07:27:38;9.60;99.90
16728;DHT22;8482;54.396;18.590;2022-11-15T07:30:04;9.60;99.90
16728;DHT22;8482;54.396;18.590;2022-11-15T07:32:31;9.60;99.90
16728;DHT22;8482;54.396;18.590;2022-11-15T07:34:57;9.60;99.90
16728;DHT22;8482;54.396;18.590;2022-11-15T07:37:22;9.60;99.90
16728;DHT22;8482;54.396;18.590;2022-11-15T07:39:48;9.60;99.90
16728;DHT22;8482;54.396;18.590;2022-11-15T07:42:14;9.60;99.90
16728;DHT22;8482;54.396;18.590;2022-11-15T07:44:58;9.60;99.90
16728;DHT22;8482;54.396;18.590;2022-11-15T07:47:24;9.60;99.90
16728;DHT22;8482;54.396;18.590;2022-11-15T07:49:49;9.60;99.90
16728;DHT22;8482;54.396;18.590;2022-11-15T07:52:15;9.60;99.90
16728;DHT22;8482;54.396;18.590;2022-11-15T07:54:41;9.60;99.90
16728;DHT22;8482;54.396;18.590;2022-11-15T07:57:07;9.60;99.90
16728;DHT22;8482;54.396;18.590;2022-11-15T07:59:34;9.60;99.90
16728;DHT22;8482;54.396;18.590;2022-11-15T08:02:00;9.70;99.90
16728;DHT22;8482;54.396;18.590;2022-11-15T08:04:26;9.70;99.90
16728;DHT22;8482;54.396;18.590;2022-11-15T08:06:52;9.70;99.90
16728;DHT22;8482;54.396;18.590;2022-11-15T08:09:17;9.70;99.90
16728;DHT22;8482;54.396;18.590;2022-11-15T08:11:43;9.70;99.90
16728;DHT22;8482;54.396;18.590;2022-11-15T08:14:09;9.70;99.90
16728;DHT22;8482;54.396;18.590;2022-11-15T08:16:35;9.70;99.90
16728;DHT22;8482;54.396;18.590;2022-11-15T08:19:00;9.70;99.90
16728;DHT22;8482;54.396;18.590;2022-11-15T08:21:26;9.70;99.90
16728;DHT22;8482;54.396;18.590;2022-11-15T08:23:52;9.70;99.90
16728;DHT22;8482;54.396;18.590;2022-11-15T08:26:18;9.70;99.90
16728;DHT22;8482;54.396;18.590;2022-11-15T08:28:44;9.70;99.90
16728;DHT22;8482;54.396;18.590;2022-11-15T08:31:14;9.70;99.90
16728;DHT22;8482;54.396;18.590;2022-11-15T08:33:42;9.70;99.90
16728;DHT22;8482;54.396;18.590;2022-11-15T08:36:13;9.80;99.90
16728;DHT22;8482;54.396;18.590;2022-11-15T08:38:40;9.80;99.90
16728;DHT22;8482;54.396;18.590;2022-11-15T08:41:06;9.70;99.90
16728;DHT22;8482;54.396;18.590;2022-11-15T08:43:32;9.70;99.90
16728;DHT22;8482;54.396;18.590;2022-11-15T08:45:59;9.70;99.90
16728;DHT22;8482;54.396;18.590;2022-11-15T08:48:24;9.70;99.90
16728;DHT22;8482;54.396;18.590;2022-11-15T08:50:56;9.70;99.90
16728;DHT22;8482;54.396;18.590;2022-11-15T08:53:22;9.70;99.90
16728;DHT22;8482;54.396;18.590;2022-11-15T08:55:48;9.70;99.90
16728;DHT22;8482;54.396;18.590;2022-11-15T08:58:14;9.70;99.90
16728;DHT22;8482;54.396;18.590;2022-11-15T09:00:40;9.70;99.90
16728;DHT22;8482;54.396;18.590;2022-11-15T09:03:06;9.70;99.90
16728;DHT22;8482;54.396;18.590;2022-11-15T09:05:36;9.70;99.90
16728;DHT22;8482;54.396;18.590;2022-11-15T09:08:03;9.70;99.90
16728;DHT22;8482;54.396;18.590;2022-11-15T09:10:29;9.70;99.90
16728;DHT22;8482;54.396;18.590;2022-11-15T09:12:57;9.70;99.90
16728;DHT22;8482;54.396;18.590;2022-11-15T09:15:23;9.70;99.90
16728;DHT22;8482;54.396;18.590;2022-11-15T09:17:48;9.70;99.90
16728;DHT22;8482;54.396;18.590;2022-11-15T09:20:15;9.70;99.90
16728;DHT22;8482;54.396;18.590;2022-11-15T09:22:41;9.70;99.90
16728;DHT22;8482;54.396;18.590;2022-11-15T09:25:07;9.70;99.90
16728;DHT22;8482;54.396;18.590;2022-11-15T09:27:33;9.70;99.90
16728;DHT22;8482;54.396;18.590;2022-11-15T09:29:59;9.70;99.90
16728;DHT22;8482;54.396;18.590;2022-11-15T09:32:28;9.70;99.90
16728;DHT22;8482;54.396;18.590;2022-11-15T09:34:56;9.70;99.90
16728;DHT22;8482;54.396;18.590;2022-11-15T09:37:22;9.70;99.90
16728;DHT22;8482;54.396;18.590;2022-11-15T09:39:48;9.70;99.90
16728;DHT22;8482;54.396;18.590;2022-11-15T09:42:30;9.70;99.90
16728;DHT22;8482;54.396;18.590;2022-11-15T09:45:26;9.70;99.90
16728;DHT22;8482;54.396;18.590;2022-11-15T09:50:54;9.70;99.90
16728;DHT22;8482;54.396;18.590;2022-11-15T09:53:44;9.70;99.90
16728;DHT22;8482;54.396;18.590;2022-11-15T09:56:21;9.70;99.90
16728;DHT22;8482;54.396;18.590;2022-11-15T09:59:03;9.70;99.90
16728;DHT22;8482;54.396;18.590;2022-11-15T10:03:56;9.70;99.90
16728;DHT22;8482;54.396;18.590;2022-11-15T10:06:25;9.70;99.90
16728;DHT22;8482;54.396;18.590;2022-11-15T10:09:16;9.70;99.90
16728;DHT22;8482;54.396;18.590;2022-11-15T10:11:59;9.70;99.90
16728;DHT22;8482;54.396;18.590;2022-11-15T10:14:28;9.70;99.90
16728;DHT22;8482;54.396;18.590;2022-11-15T10:20:29;9.70;99.90
16728;DHT22;8482;54.396;18.590;2022-11-15T10:23:04;9.70;99.90
16728;DHT22;8482;54.396;18.590;2022-11-15T10:25:33;9.70;99.90
16728;DHT22;8482;54.396;18.590;2022-11-15T10:28:28;9.70;99.90
16728;DHT22;8482;54.396;18.590;2022-11-15T10:30:59;9.70;99.90
16728;DHT22;8482;54.396;18.590;2022-11-15T10:33:38;9.60;99.90
16728;DHT22;8482;54.396;18.590;2022-11-15T10:36:20;9.60;99.90
16728;DHT22;8482;54.396;18.590;2022-11-15T10:46:34;9.70;99.90
16728;DHT22;8482;54.396;18.590;2022-11-15T10:52:00;9.70;99.90
16728;DHT22;8482;54.396;18.590;2022-11-15T10:54:37;9.70;99.90
16728;DHT22;8482;54.396;18.590;2022-11-15T10:57:14;9.80;99.90
16728;DHT22;8482;54.396;18.590;2022-11-15T10:59:48;9.80;99.90
16728;DHT22;8482;54.396;18.590;2022-11-15T11:02:37;9.70;99.90
16728;DHT22;8482;54.396;18.590;2022-11-15T11:10:52;9.80;99.90
16728;DHT22;8482;54.396;18.590;2022-11-15T11:16:44;9.80;99.90
16728;DHT22;8482;54.396;18.590;2022-11-15T11:19:34;9.80;99.90
16728;DHT22;8482;54.396;18.590;2022-11-15T11:22:46;9.80;99.90
16728;DHT22;8482;54.396;18.590;2022-11-15T11:25:23;9.80;99.90
16728;DHT22;8482;54.396;18.590;2022-11-15T11:48:48;10.00;99.90
16728;DHT22;8482;54.396;18.590;2022-11-15T11:51:24;9.90;99.90
16728;DHT22;8482;54.396;18.590;2022-11-15T11:54:17;10.00;99.90
16728;DHT22;8482;54.396;18.590;2022-11-15T11:56:53;10.00;99.90
16728;DHT22;8482;54.396;18.590;2022-11-15T11:59:47;10.00;99.90
16728;DHT22;8482;54.396;18.590;2022-11-15T12:02:38;10.00;99.90
16728;DHT22;8482;54.396;18.590;2022-11-15T12:05:18;10.00;99.90
16728;DHT22;8482;54.396;18.590;2022-11-15T12:07:54;10.00;99.90
16728;DHT22;8482;54.396;18.590;2022-11-15T12:10:30;10.00;99.90
16728;DHT22;8482;54.396;18.590;2022-11-15T12:13:13;10.10;99.90
16728;DHT22;8482;54.396;18.590;2022-11-15T12:15:56;10.00;99.90
16728;DHT22;8482;54.396;18.590;2022-11-15T12:18:24;10.10;99.90
16728;DHT22;8482;54.396;18.590;2022-11-15T12:20:59;10.00;99.90
16728;DHT22;8482;54.396;18.590;2022-11-15T12:23:34;10.00;99.90
16728;DHT22;8482;54.396;18.590;2022-11-15T12:26:23;10.00;99.90
16728;DHT22;8482;54.396;18.590;2022-11-15T12:28:59;10.10;99.90
16728;DHT22;8482;54.396;18.590;2022-11-15T12:34:03;10.10;99.90
16728;DHT22;8482;54.396;18.590;2022-11-15T12:36:41;10.10;99.90
16728;DHT22;8482;54.396;18.590;2022-11-15T12:39:11;10.00;99.90
16728;DHT22;8482;54.396;18.590;2022-11-15T13:02:39;10.10;99.90
16728;DHT22;8482;54.396;18.590;2022-11-15T13:17:45;10.10;99.90
16728;DHT22;8482;54.396;18.590;2022-11-15T13:22:50;10.00;99.90
16728;DHT22;8482;54.396;18.590;2022-11-15T13:33:27;10.00;99.90
16728;DHT22;8482;54.396;18.590;2022-11-15T13:35:59;10.00;99.90
16728;DHT22;8482;54.396;18.590;2022-11-15T13:38:55;10.00;99.90
16728;DHT22;8482;54.396;18.590;2022-11-15T13:41:28;10.00;99.90
16728;DHT22;8482;54.396;18.590;2022-11-15T13:43:57;10.00;99.90
16728;DHT22;8482;54.396;18.590;2022-11-15T13:46:26;10.00;99.90
16728;DHT22;8482;54.396;18.590;2022-11-15T13:49:01;10.00;99.90
16728;DHT22;8482;54.396;18.590;2022-11-15T13:51:42;10.00;99.90
16728;DHT22;8482;54.396;18.590;2022-11-15T13:56:39;9.90;99.90
16728;DHT22;8482;54.396;18.590;2022-11-15T13:59:24;9.90;99.90
16728;DHT22;8482;54.396;18.590;2022-11-15T14:01:53;9.90;99.90
16728;DHT22;8482;54.396;18.590;2022-11-15T14:04:22;9.90;99.90
16728;DHT22;8482;54.396;18.590;2022-11-15T14:06:53;9.90;99.90
16728;DHT22;8482;54.396;18.590;2022-11-15T14:09:34;9.90;99.90
16728;DHT22;8482;54.396;18.590;2022-11-15T14:15:02;9.90;99.90
16728;DHT22;8482;54.396;18.590;2022-11-15T14:18:05;9.90;99.90
16728;DHT22;8482;54.396;18.590;2022-11-15T14:20:32;9.80;99.90
16728;DHT22;8482;54.396;18.590;2022-11-15T14:23:06;9.80;99.90
16728;DHT22;8482;54.396;18.590;2022-11-15T14:25:56;9.80;99.90
16728;DHT22;8482;54.396;18.590;2022-11-15T14:28:32;9.80;99.90
16728;DHT22;8482;54.396;18.590;2022-11-15T14:31:11;9.80;99.90
16728;DHT22;8482;54.396;18.590;2022-11-15T14:33:39;9.80;99.90
16728;DHT22;8482;54.396;18.590;2022-11-15T14:36:14;9.80;99.90
16728;DHT22;8482;54.396;18.590;2022-11-15T14:38:45;9.80;99.90
16728;DHT22;8482;54.396;18.590;2022-11-15T14:41:22;9.80;99.90
16728;DHT22;8482;54.396;18.590;2022-11-15T14:43:51;9.80;99.90
16728;DHT22;8482;54.396;18.590;2022-11-15T14:46:17;9.70;99.90
16728;DHT22;8482;54.396;18.590;2022-11-15T14:48:44;9.70;99.90
16728;DHT22;8482;54.396;18.590;2022-11-15T14:51:15;9.70;99.90
16728;DHT22;8482;54.396;18.590;2022-11-15T14:53:43;9.70;99.90
16728;DHT22;8482;54.396;18.590;2022-11-15T14:56:10;9.70;99.90
16728;DHT22;8482;54.396;18.590;2022-11-15T14:58:37;9.70;99.90
16728;DHT22;8482;54.396;18.590;2022-11-15T15:01:24;9.70;99.90
16728;DHT22;8482;54.396;18.590;2022-11-15T15:03:51;9.70;99.90
16728;DHT22;8482;54.396;18.590;2022-11-15T15:06:18;9.70;99.90
16728;DHT22;8482;54.396;18.590;2022-11-15T15:08:45;9.70;99.90
16728;DHT22;8482;54.396;18.590;2022-11-15T15:11:16;9.70;99.90
16728;DHT22;8482;54.396;18.590;2022-11-15T15:13:47;9.70;99.90
16728;DHT22;8482;54.396;18.590;2022-11-15T15:16:13;9.60;99.90
16728;DHT22;8482;54.396;18.590;2022-11-15T15:18:38;9.70;99.90
16728;DHT22;8482;54.396;18.590;2022-11-15T15:21:17;9.60;99.90
16728;DHT22;8482;54.396;18.590;2022-11-15T15:23:45;9.70;99.90
16728;DHT22;8482;54.396;18.590;2022-11-15T15:26:11;9.60;99.90
16728;DHT22;8482;54.396;18.590;2022-11-15T15:28:37;9.60;99.90
16728;DHT22;8482;54.396;18.590;2022-11-15T15:31:04;9.60;99.90
16728;DHT22;8482;54.396;18.590;2022-11-15T15:33:31;9.70;99.90
16728;DHT22;8482;54.396;18.590;2022-11-15T15:35:57;9.60;99.90
16728;DHT22;8482;54.396;18.590;2022-11-15T15:38:24;9.70;99.90
16728;DHT22;8482;54.396;18.590;2022-11-15T15:40:51;9.70;99.90
16728;DHT22;8482;54.396;18.590;2022-11-15T15:43:18;9.60;99.90
16728;DHT22;8482;54.396;18.590;2022-11-15T15:45:44;9.60;99.90
16728;DHT22;8482;54.396;18.590;2022-11-15T15:48:15;9.60;99.90
16728;DHT22;8482;54.396;18.590;2022-11-15T15:50:42;9.60;99.90
16728;DHT22;8482;54.396;18.590;2022-11-15T15:53:09;9.60;99.90
16728;DHT22;8482;54.396;18.590;2022-11-15T15:55:36;9.60;99.90
16728;DHT22;8482;54.396;18.590;2022-11-15T15:58:03;9.60;99.90
16728;DHT22;8482;54.396;18.590;2022-11-15T16:00:30;9.60;99.90
16728;DHT22;8482;54.396;18.590;2022-11-15T16:02:58;9.60;99.90
16728;DHT22;8482;54.396;18.590;2022-11-15T16:05:24;9.60;99.90
16728;DHT22;8482;54.396;18.590;2022-11-15T16:07:50;9.60;99.90
16728;DHT22;8482;54.396;18.590;2022-11-15T16:10:28;9.60;99.90
16728;DHT22;8482;54.396;18.590;2022-11-15T16:12:57;9.60;99.90
16728;DHT22;8482;54.396;18.590;2022-11-15T16:15:26;9.60;99.90
16728;DHT22;8482;54.396;18.590;2022-11-15T16:17:55;9.60;99.90
16728;DHT22;8482;54.396;18.590;2022-11-15T16:20:40;9.60;99.90
16728;DHT22;8482;54.396;18.590;2022-11-15T16:23:15;9.60;99.90
16728;DHT22;8482;54.396;18.590;2022-11-15T16:25:51;9.60;99.90
16728;DHT22;8482;54.396;18.590;2022-11-15T16:28:24;9.60;99.90
16728;DHT22;8482;54.396;18.590;2022-11-15T16:31:03;9.60;99.90
16728;DHT22;8482;54.396;18.590;2022-11-15T16:33:31;9.60;99.90
16728;DHT22;8482;54.396;18.590;2022-11-15T16:35:57;9.60;99.90
16728;DHT22;8482;54.396;18.590;2022-11-15T16:38:23;9.60;99.90
16728;DHT22;8482;54.396;18.590;2022-11-15T16:40:48;9.60;99.90
16728;DHT22;8482;54.396;18.590;2022-11-15T16:43:14;9.60;99.90
16728;DHT22;8482;54.396;18.590;2022-11-15T16:45:40;9.50;99.90
16728;DHT22;8482;54.396;18.590;2022-11-15T16:48:06;9.50;99.90
16728;DHT22;8482;54.396;18.590;2022-11-15T16:50:46;9.50;99.90
16728;DHT22;8482;54.396;18.590;2022-11-15T16:53:11;9.50;99.90
16728;DHT22;8482;54.396;18.590;2022-11-15T16:55:37;9.50;99.90
16728;DHT22;8482;54.396;18.590;2022-11-15T16:58:03;9.50;99.90
16728;DHT22;8482;54.396;18.590;2022-11-15T17:00:28;9.50;99.90
16728;DHT22;8482;54.396;18.590;2022-11-15T17:02:54;9.50;99.90
16728;DHT22;8482;54.396;18.590;2022-11-15T17:05:22;9.50;99.90
16728;DHT22;8482;54.396;18.590;2022-11-15T17:07:50;9.60;99.90
16728;DHT22;8482;54.396;18.590;2022-11-15T17:10:24;9.60;99.90
16728;DHT22;8482;54.396;18.590;2022-11-15T17:12:51;9.50;99.90
16728;DHT22;8482;54.396;18.590;2022-11-15T17:15:17;9.60;99.90
16728;DHT22;8482;54.396;18.590;2022-11-15T17:17:44;9.50;99.90
16728;DHT22;8482;54.396;18.590;2022-11-15T17:20:18;9.60;99.90
16728;DHT22;8482;54.396;18.590;2022-11-15T17:22:45;9.60;99.90
16728;DHT22;8482;54.396;18.590;2022-11-15T17:25:12;9.60;99.90
16728;DHT22;8482;54.396;18.590;2022-11-15T17:27:38;9.60;99.90
16728;DHT22;8482;54.396;18.590;2022-11-15T17:30:05;9.60;99.90
16728;DHT22;8482;54.396;18.590;2022-11-15T17:32:34;9.60;99.90
16728;DHT22;8482;54.396;18.590;2022-11-15T17:35:02;9.60;99.90
16728;DHT22;8482;54.396;18.590;2022-11-15T17:37:28;9.60;99.90
16728;DHT22;8482;54.396;18.590;2022-11-15T17:39:54;9.60;99.90
16728;DHT22;8482;54.396;18.590;2022-11-15T17:42:20;9.60;99.90
16728;DHT22;8482;54.396;18.590;2022-11-15T17:44:46;9.60;99.90
16728;DHT22;8482;54.396;18.590;2022-11-15T17:47:11;9.60;99.90
16728;DHT22;8482;54.396;18.590;2022-11-15T17:49:37;9.60;99.90
16728;DHT22;8482;54.396;18.590;2022-11-15T17:52:05;9.60;99.90
16728;DHT22;8482;54.396;18.590;2022-11-15T17:54:31;9.60;99.90
16728;DHT22;8482;54.396;18.590;2022-11-15T17:56:57;9.60;99.90
16728;DHT22;8482;54.396;18.590;2022-11-15T17:59:23;9.60;99.90
16728;DHT22;8482;54.396;18.590;2022-11-15T18:01:49;9.60;99.90
16728;DHT22;8482;54.396;18.590;2022-11-15T18:04:15;9.60;99.90
16728;DHT22;8482;54.396;18.590;2022-11-15T18:06:41;9.60;99.90
16728;DHT22;8482;54.396;18.590;2022-11-15T18:09:07;9.60;99.90
16728;DHT22;8482;54.396;18.590;2022-11-15T18:11:39;9.60;99.90
16728;DHT22;8482;54.396;18.590;2022-11-15T18:14:08;9.60;99.90
16728;DHT22;8482;54.396;18.590;2022-11-15T18:16:38;9.60;99.90